createdAt,value
2022-08-28T00:00:12.498Z,986.20
2022-08-28T00:01:12.495Z,986.19
2022-08-28T00:02:12.482Z,986.20
2022-08-28T00:03:12.573Z,986.20
2022-08-28T00:04:12.463Z,986.19
2022-08-28T00:05:12.460Z,986.19
2022-08-28T00:06:12.461Z,986.21
2022-08-28T00:07:12.439Z,986.21
2022-08-28T00:08:12.645Z,986.22
2022-08-28T00:09:12.401Z,986.22
2022-08-28T00:10:12.401Z,986.23
2022-08-28T00:11:12.389Z,986.23
2022-08-28T00:12:12.378Z,986.24
2022-08-28T00:13:12.368Z,986.23
2022-08-28T00:14:12.387Z,986.24
2022-08-28T00:15:12.891Z,986.25
2022-08-28T00:16:12.416Z,986.24
2022-08-28T00:17:12.337Z,986.24
2022-08-28T00:18:12.489Z,986.24
2022-08-28T00:19:12.298Z,986.25
2022-08-28T00:20:12.410Z,986.25
2022-08-28T00:21:12.288Z,986.25
2022-08-28T00:22:12.275Z,986.25
2022-08-28T00:23:12.285Z,986.26
2022-08-28T00:24:12.276Z,986.25
2022-08-28T00:25:12.235Z,986.27
2022-08-28T00:26:12.231Z,986.28
2022-08-28T00:27:12.236Z,986.29
2022-08-28T00:28:23.465Z,986.29
2022-08-28T00:29:12.261Z,986.30
2022-08-28T00:30:12.188Z,986.30
2022-08-28T00:31:12.222Z,986.31
2022-08-28T00:32:12.167Z,986.31
2022-08-28T00:33:12.152Z,986.31
2022-08-28T00:34:12.145Z,986.33
2022-08-28T00:35:12.160Z,986.34
2022-08-28T00:36:12.145Z,986.36
2022-08-28T00:37:12.152Z,986.35
2022-08-28T00:38:12.253Z,986.38
2022-08-28T00:39:12.108Z,986.39
2022-08-28T00:40:12.134Z,986.39
2022-08-28T00:41:12.072Z,986.39
2022-08-28T00:42:12.063Z,986.40
2022-08-28T00:43:12.050Z,986.40
2022-08-28T00:44:12.045Z,986.42
2022-08-28T00:45:12.032Z,986.41
2022-08-28T00:46:12.108Z,986.42
2022-08-28T00:47:12.013Z,986.43
2022-08-28T00:48:12.147Z,986.43
2022-08-28T00:49:12.077Z,986.47
2022-08-28T00:50:12.010Z,986.44
2022-08-28T00:51:11.983Z,986.45
2022-08-28T00:52:12.469Z,986.46
2022-08-28T00:53:11.966Z,986.45
2022-08-28T00:54:11.937Z,986.45
2022-08-28T00:55:11.924Z,986.44
2022-08-28T00:56:12.846Z,986.44
2022-08-28T00:57:11.901Z,986.44
2022-08-28T00:58:12.067Z,986.46
2022-08-28T00:59:11.900Z,986.45
2022-08-28T01:00:11.880Z,986.46
2022-08-28T01:01:11.863Z,986.47
2022-08-28T01:02:11.857Z,986.49
2022-08-28T01:03:11.906Z,986.49
2022-08-28T01:04:11.851Z,986.50
2022-08-28T01:05:11.822Z,986.50
2022-08-28T01:06:11.809Z,986.50
2022-08-28T01:07:11.813Z,986.52
2022-08-28T01:08:11.986Z,986.52
2022-08-28T01:09:11.802Z,986.52
2022-08-28T01:10:11.772Z,986.54
2022-08-28T01:11:11.763Z,986.53
2022-08-28T01:12:11.763Z,986.53
2022-08-28T01:13:11.737Z,986.55
2022-08-28T01:14:11.739Z,986.57
2022-08-28T01:15:11.742Z,986.59
2022-08-28T01:16:11.742Z,986.59
2022-08-28T01:17:11.700Z,986.61
2022-08-28T01:18:11.794Z,986.63
2022-08-28T01:19:11.679Z,986.64
2022-08-28T01:20:11.666Z,986.66
2022-08-28T01:21:12.729Z,986.68
2022-08-28T01:22:11.658Z,986.68
2022-08-28T01:23:11.633Z,986.69
2022-08-28T01:24:11.623Z,986.70
2022-08-28T01:25:11.612Z,986.72
2022-08-28T01:26:11.864Z,986.72
2022-08-28T01:27:11.594Z,986.71
2022-08-28T01:28:11.821Z,986.71
2022-08-28T01:29:11.580Z,986.69
2022-08-28T01:30:11.560Z,986.70
2022-08-28T01:31:12.114Z,986.69
2022-08-28T01:32:11.565Z,986.70
2022-08-28T01:33:11.987Z,986.70
2022-08-28T01:34:11.523Z,986.70
2022-08-28T01:35:11.510Z,986.70
2022-08-28T01:36:11.499Z,986.71
2022-08-28T01:37:11.510Z,986.71
2022-08-28T01:38:11.790Z,986.73
2022-08-28T01:39:11.469Z,986.73
2022-08-28T01:40:11.526Z,986.73
2022-08-28T01:41:11.480Z,986.73
2022-08-28T01:42:11.437Z,986.73
2022-08-28T01:43:11.469Z,986.74
2022-08-28T01:44:11.424Z,986.74
2022-08-28T01:45:11.402Z,986.76
2022-08-28T01:46:11.477Z,986.77
2022-08-28T01:47:11.385Z,986.78
2022-08-28T01:48:11.604Z,986.78
2022-08-28T01:49:11.402Z,986.79
2022-08-28T01:50:11.354Z,986.80
2022-08-28T01:51:11.375Z,986.80
2022-08-28T01:52:11.774Z,986.79
2022-08-28T01:53:12.510Z,986.80
2022-08-28T01:54:11.965Z,986.79
2022-08-28T01:55:11.322Z,986.79
2022-08-28T01:56:11.295Z,986.80
2022-08-28T01:57:11.285Z,986.79
2022-08-28T01:58:11.425Z,986.79
2022-08-28T01:59:11.318Z,986.80
2022-08-28T02:00:11.273Z,986.78
2022-08-28T02:01:11.348Z,986.78
2022-08-28T02:02:11.236Z,986.77
2022-08-28T02:03:11.224Z,986.77
2022-08-28T02:04:11.306Z,986.76
2022-08-28T02:05:11.199Z,986.77
2022-08-28T02:06:11.210Z,986.77
2022-08-28T02:07:11.174Z,986.78
2022-08-28T02:08:11.179Z,986.79
2022-08-28T02:09:14.468Z,986.79
2022-08-28T02:10:11.149Z,986.79
2022-08-28T02:11:11.133Z,986.79
2022-08-28T02:12:11.151Z,986.78
2022-08-28T02:13:11.112Z,986.77
2022-08-28T02:14:11.111Z,986.76
2022-08-28T02:15:11.098Z,986.75
2022-08-28T02:16:11.207Z,986.75
2022-08-28T02:17:11.069Z,986.75
2022-08-28T02:18:11.151Z,986.76
2022-08-28T02:19:11.048Z,986.76
2022-08-28T02:20:11.064Z,986.76
2022-08-28T02:21:11.035Z,986.77
2022-08-28T02:22:11.019Z,986.77
2022-08-28T02:23:11.044Z,986.77
2022-08-28T02:24:11.006Z,986.77
2022-08-28T02:25:10.987Z,986.78
2022-08-28T02:26:10.980Z,986.77
2022-08-28T02:27:10.964Z,986.78
2022-08-28T02:28:11.289Z,986.78
2022-08-28T02:29:10.970Z,986.79
2022-08-28T02:30:10.942Z,986.79
2022-08-28T02:31:10.997Z,986.80
2022-08-28T02:32:10.917Z,986.79
2022-08-28T02:33:10.900Z,986.80
2022-08-28T02:34:10.894Z,986.79
2022-08-28T02:35:12.086Z,986.79
2022-08-28T02:36:10.872Z,986.80
2022-08-28T02:37:10.863Z,986.80
2022-08-28T02:38:10.868Z,986.79
2022-08-28T02:39:10.840Z,986.81
2022-08-28T02:40:10.876Z,986.83
2022-08-28T02:41:10.845Z,986.84
2022-08-28T02:42:10.821Z,986.85
2022-08-28T02:43:10.803Z,986.87
2022-08-28T02:44:10.792Z,986.89
2022-08-28T02:45:10.793Z,986.90
2022-08-28T02:46:10.840Z,986.92
2022-08-28T02:47:10.778Z,986.92
2022-08-28T02:48:17.194Z,986.94
2022-08-28T02:49:10.750Z,986.93
2022-08-28T02:50:10.728Z,986.92
2022-08-28T02:51:10.722Z,986.92
2022-08-28T02:52:10.709Z,986.90
2022-08-28T02:53:10.712Z,986.89
2022-08-28T02:54:10.690Z,986.88
2022-08-28T02:55:10.675Z,986.86
2022-08-28T02:56:10.666Z,986.84
2022-08-28T02:57:10.677Z,986.82
2022-08-28T02:58:10.804Z,986.82
2022-08-28T02:59:10.634Z,986.81
2022-08-28T03:00:10.624Z,986.80
2022-08-28T03:01:10.702Z,986.80
2022-08-28T03:02:10.674Z,986.80
2022-08-28T03:03:10.622Z,986.82
2022-08-28T03:04:10.606Z,986.82
2022-08-28T03:05:10.574Z,986.83
2022-08-28T03:06:10.563Z,986.83
2022-08-28T03:07:11.224Z,986.85
2022-08-28T03:08:10.563Z,986.86
2022-08-28T03:09:10.530Z,986.87
2022-08-28T03:10:10.527Z,986.87
2022-08-28T03:11:10.509Z,986.88
2022-08-28T03:12:10.501Z,986.89
2022-08-28T03:13:10.491Z,986.88
2022-08-28T03:14:10.520Z,986.89
2022-08-28T03:15:10.476Z,986.89
2022-08-28T03:16:10.463Z,986.90
2022-08-28T03:17:10.440Z,986.89
2022-08-28T03:18:11.206Z,986.89
2022-08-28T03:19:10.426Z,986.89
2022-08-28T03:20:10.424Z,986.91
2022-08-28T03:21:10.421Z,986.88
2022-08-28T03:22:10.407Z,986.89
2022-08-28T03:23:10.388Z,986.90
2022-08-28T03:24:10.405Z,986.90
2022-08-28T03:25:10.360Z,986.90
2022-08-28T03:26:10.359Z,986.89
2022-08-28T03:27:10.360Z,986.89
2022-08-28T03:28:10.340Z,986.88
2022-08-28T03:29:10.320Z,986.89
2022-08-28T03:30:10.338Z,986.86
2022-08-28T03:31:10.349Z,986.86
2022-08-28T03:32:10.294Z,986.89
2022-08-28T03:33:10.278Z,986.88
2022-08-28T03:34:10.268Z,986.88
2022-08-28T03:35:10.267Z,986.90
2022-08-28T03:36:10.269Z,986.89
2022-08-28T03:37:10.244Z,986.90
2022-08-28T03:38:10.267Z,986.89
2022-08-28T03:39:10.222Z,986.91
2022-08-28T03:40:10.261Z,986.87
2022-08-28T03:41:10.194Z,986.86
2022-08-28T03:42:10.213Z,986.87
2022-08-28T03:43:10.176Z,986.87
2022-08-28T03:44:10.174Z,986.88
2022-08-28T03:45:10.156Z,986.87
2022-08-28T03:46:10.222Z,986.89
2022-08-28T03:47:10.130Z,986.91
2022-08-28T03:48:10.157Z,986.91
2022-08-28T03:49:10.120Z,986.91
2022-08-28T03:50:10.153Z,986.92
2022-08-28T03:51:10.162Z,986.92
2022-08-28T03:52:10.077Z,986.90
2022-08-28T03:53:10.076Z,986.92
2022-08-28T03:54:10.087Z,986.91
2022-08-28T03:55:10.052Z,986.91
2022-08-28T03:56:10.039Z,986.90
2022-08-28T03:57:10.060Z,986.88
2022-08-28T03:58:10.018Z,986.91
2022-08-28T03:59:10.020Z,986.91
2022-08-28T04:00:10.000Z,986.91
2022-08-28T04:01:10.100Z,986.93
2022-08-28T04:02:09.983Z,986.93
2022-08-28T04:03:10.028Z,986.92
2022-08-28T04:04:09.974Z,986.89
2022-08-28T04:05:09.969Z,986.92
2022-08-28T04:06:09.934Z,986.92
2022-08-28T04:07:10.004Z,986.92
2022-08-28T04:08:09.964Z,986.92
2022-08-28T04:09:09.856Z,986.93
2022-08-28T04:10:09.851Z,986.94
2022-08-28T04:11:09.855Z,986.95
2022-08-28T04:12:09.822Z,986.96
2022-08-28T04:13:09.813Z,986.98
2022-08-28T04:14:09.798Z,986.98
2022-08-28T04:15:09.793Z,986.98
2022-08-28T04:16:09.829Z,986.99
2022-08-28T04:17:09.863Z,986.98
2022-08-28T04:18:09.830Z,986.98
2022-08-28T04:19:09.754Z,986.98
2022-08-28T04:20:10.606Z,986.98
2022-08-28T04:21:09.731Z,986.98
2022-08-28T04:22:09.715Z,987.00
2022-08-28T04:23:09.733Z,987.01
2022-08-28T04:24:09.993Z,987.02
2022-08-28T04:25:09.693Z,987.02
2022-08-28T04:26:09.681Z,987.02
2022-08-28T04:27:09.671Z,987.04
2022-08-28T04:28:09.710Z,987.05
2022-08-28T04:29:09.678Z,987.07
2022-08-28T04:30:09.973Z,987.07
2022-08-28T04:31:09.633Z,987.07
2022-08-28T04:32:09.707Z,987.07
2022-08-28T04:33:09.617Z,987.07
2022-08-28T04:34:09.620Z,987.08
2022-08-28T04:35:09.583Z,987.10
2022-08-28T04:36:09.577Z,987.09
2022-08-28T04:37:09.563Z,987.11
2022-08-28T04:38:09.551Z,987.10
2022-08-28T04:39:09.545Z,987.12
2022-08-28T04:40:09.583Z,987.14
2022-08-28T04:41:09.527Z,987.15
2022-08-28T04:42:09.563Z,987.17
2022-08-28T04:43:09.511Z,987.18
2022-08-28T04:44:09.485Z,987.18
2022-08-28T04:45:09.490Z,987.19
2022-08-28T04:46:09.628Z,987.19
2022-08-28T04:47:09.457Z,987.20
2022-08-28T04:48:10.522Z,987.20
2022-08-28T04:49:09.435Z,987.21
2022-08-28T04:50:09.432Z,987.21
2022-08-28T04:51:09.433Z,987.20
2022-08-28T04:52:09.423Z,987.21
2022-08-28T04:53:09.417Z,987.21
2022-08-28T04:54:09.386Z,987.21
2022-08-28T04:55:09.378Z,987.22
2022-08-28T04:56:09.364Z,987.22
2022-08-28T04:57:09.354Z,987.22
2022-08-28T04:58:09.413Z,987.23
2022-08-28T04:59:09.365Z,987.23
2022-08-28T05:00:09.332Z,987.22
2022-08-28T05:01:09.435Z,987.23
2022-08-28T05:02:09.349Z,987.23
2022-08-28T05:03:09.322Z,987.21
2022-08-28T05:04:09.278Z,987.21
2022-08-28T05:05:09.289Z,987.20
2022-08-28T05:06:09.282Z,987.21
2022-08-28T05:07:09.277Z,987.23
2022-08-28T05:08:09.272Z,987.24
2022-08-28T05:09:09.278Z,987.25
2022-08-28T05:10:09.217Z,987.25
2022-08-28T05:11:09.210Z,987.26
2022-08-28T05:12:09.199Z,987.28
2022-08-28T05:13:09.213Z,987.27
2022-08-28T05:14:11.577Z,987.29
2022-08-28T05:15:09.176Z,987.29
2022-08-28T05:16:09.221Z,987.30
2022-08-28T05:17:09.168Z,987.31
2022-08-28T05:18:09.218Z,987.34
2022-08-28T05:19:09.127Z,987.33
2022-08-28T05:20:09.114Z,987.34
2022-08-28T05:21:13.867Z,987.34
2022-08-28T05:22:10.003Z,987.35
2022-08-28T05:23:09.110Z,987.35
2022-08-28T05:24:09.075Z,987.37
2022-08-28T05:25:09.063Z,987.40
2022-08-28T05:26:09.051Z,987.40
2022-08-28T05:27:09.068Z,987.42
2022-08-28T05:28:11.463Z,987.42
2022-08-28T05:29:09.050Z,987.44
2022-08-28T05:30:09.011Z,987.44
2022-08-28T05:31:09.084Z,987.43
2022-08-28T05:32:08.986Z,987.45
2022-08-28T05:33:08.985Z,987.45
2022-08-28T05:34:08.994Z,987.46
2022-08-28T05:35:08.960Z,987.44
2022-08-28T05:36:08.951Z,987.43
2022-08-28T05:37:08.940Z,987.43
2022-08-28T05:38:09.001Z,987.41
2022-08-28T05:39:08.916Z,987.40
2022-08-28T05:40:08.928Z,987.42
2022-08-28T05:41:08.899Z,987.42
2022-08-28T05:42:08.929Z,987.41
2022-08-28T05:43:08.880Z,987.41
2022-08-28T05:44:08.957Z,987.41
2022-08-28T05:45:08.854Z,987.42
2022-08-28T05:46:08.906Z,987.45
2022-08-28T05:47:08.837Z,987.46
2022-08-28T05:48:08.898Z,987.45
2022-08-28T05:49:10.178Z,987.45
2022-08-28T05:50:08.803Z,987.47
2022-08-28T05:51:08.791Z,987.47
2022-08-28T05:52:08.795Z,987.49
2022-08-28T05:53:08.776Z,987.50
2022-08-28T05:54:08.776Z,987.50
2022-08-28T05:55:08.775Z,987.52
2022-08-28T05:56:08.740Z,987.53
2022-08-28T05:57:08.733Z,987.55
2022-08-28T05:58:08.742Z,987.54
2022-08-28T05:59:08.731Z,987.56
2022-08-28T06:00:08.704Z,987.57
2022-08-28T06:01:08.691Z,987.59
2022-08-28T06:02:08.727Z,987.60
2022-08-28T06:03:09.154Z,987.59
2022-08-28T06:04:08.803Z,987.59
2022-08-28T06:05:08.647Z,987.59
2022-08-28T06:06:08.638Z,987.57
2022-08-28T06:07:08.632Z,987.58
2022-08-28T06:08:08.653Z,987.57
2022-08-28T06:09:08.629Z,987.57
2022-08-28T06:10:10.617Z,987.56
2022-08-28T06:11:08.586Z,987.58
2022-08-28T06:12:08.581Z,987.58
2022-08-28T06:13:08.568Z,987.58
2022-08-28T06:14:08.551Z,987.58
2022-08-28T06:15:08.572Z,987.59
2022-08-28T06:16:08.624Z,987.56
2022-08-28T06:17:08.523Z,987.56
2022-08-28T06:18:08.526Z,987.57
2022-08-28T06:19:08.509Z,987.58
2022-08-28T06:20:09.165Z,987.57
2022-08-28T06:21:08.483Z,987.59
2022-08-28T06:22:08.473Z,987.60
2022-08-28T06:23:08.468Z,987.63
2022-08-28T06:24:08.454Z,987.64
2022-08-28T06:25:08.442Z,987.66
2022-08-28T06:26:08.455Z,987.66
2022-08-28T06:27:08.423Z,987.66
2022-08-28T06:28:08.409Z,987.67
2022-08-28T06:29:08.402Z,987.67
2022-08-28T06:30:08.416Z,987.67
2022-08-28T06:31:23.316Z,987.71
2022-08-28T06:32:08.426Z,987.71
2022-08-28T06:33:08.362Z,987.72
2022-08-28T06:34:08.342Z,987.73
2022-08-28T06:35:08.347Z,987.75
2022-08-28T06:36:08.373Z,987.76
2022-08-28T06:37:08.317Z,987.78
2022-08-28T06:38:08.303Z,987.78
2022-08-28T06:39:08.301Z,987.79
2022-08-28T06:40:08.332Z,987.78
2022-08-28T06:41:08.300Z,987.80
2022-08-28T06:42:08.258Z,987.79
2022-08-28T06:43:08.254Z,987.83
2022-08-28T06:44:08.240Z,987.82
2022-08-28T06:45:08.238Z,987.81
2022-08-28T06:46:08.324Z,987.82
2022-08-28T06:47:08.264Z,987.82
2022-08-28T06:48:08.197Z,987.82
2022-08-28T06:49:08.193Z,987.80
2022-08-28T06:50:08.176Z,987.78
2022-08-28T06:51:08.169Z,987.80
2022-08-28T06:52:08.164Z,987.80
2022-08-28T06:53:08.175Z,987.82
2022-08-28T06:54:08.144Z,987.81
2022-08-28T06:55:08.131Z,987.80
2022-08-28T06:56:08.122Z,987.81
2022-08-28T06:57:08.111Z,987.80
2022-08-28T06:58:08.170Z,987.82
2022-08-28T06:59:08.090Z,987.79
2022-08-28T07:00:08.076Z,987.80
2022-08-28T07:01:08.093Z,987.80
2022-08-28T07:02:08.163Z,987.82
2022-08-28T07:03:08.062Z,987.82
2022-08-28T07:04:08.058Z,987.84
2022-08-28T07:05:08.022Z,987.86
2022-08-28T07:06:08.014Z,987.89
2022-08-28T07:07:08.007Z,987.89
2022-08-28T07:08:08.024Z,987.90
2022-08-28T07:09:08.010Z,987.90
2022-08-28T07:10:07.968Z,987.91
2022-08-28T07:11:07.964Z,987.92
2022-08-28T07:12:07.981Z,987.93
2022-08-28T07:13:07.981Z,987.94
2022-08-28T07:14:07.935Z,987.94
2022-08-28T07:15:07.951Z,987.98
2022-08-28T07:16:07.994Z,987.97
2022-08-28T07:17:07.903Z,987.97
2022-08-28T07:18:08.050Z,987.96
2022-08-28T07:19:07.910Z,988.00
2022-08-28T07:20:07.908Z,987.98
2022-08-28T07:21:12.134Z,987.99
2022-08-28T07:22:07.847Z,988.00
2022-08-28T07:23:07.840Z,987.98
2022-08-28T07:24:07.823Z,987.99
2022-08-28T07:25:07.840Z,987.99
2022-08-28T07:26:07.841Z,987.97
2022-08-28T07:27:07.796Z,987.99
2022-08-28T07:28:07.877Z,987.99
2022-08-28T07:29:10.128Z,988.00
2022-08-28T07:30:07.763Z,988.01
2022-08-28T07:31:07.840Z,988.02
2022-08-28T07:32:07.770Z,988.04
2022-08-28T07:33:07.777Z,988.03
2022-08-28T07:34:07.724Z,987.99
2022-08-28T07:35:07.719Z,988.01
2022-08-28T07:36:07.706Z,988.01
2022-08-28T07:37:11.070Z,988.02
2022-08-28T07:38:07.685Z,988.00
2022-08-28T07:39:07.668Z,987.99
2022-08-28T07:40:07.718Z,987.98
2022-08-28T07:41:07.654Z,987.96
2022-08-28T07:42:07.678Z,987.99
2022-08-28T07:43:07.639Z,987.98
2022-08-28T07:44:07.623Z,987.98
2022-08-28T07:45:07.605Z,987.99
2022-08-28T07:46:07.779Z,988.00
2022-08-28T07:47:08.788Z,988.01
2022-08-28T07:48:11.359Z,987.98
2022-08-28T07:49:07.566Z,987.98
2022-08-28T07:50:07.557Z,987.96
2022-08-28T07:51:07.553Z,987.94
2022-08-28T07:52:07.534Z,987.95
2022-08-28T07:53:07.527Z,987.96
2022-08-28T07:54:11.209Z,987.97
2022-08-28T07:55:07.524Z,987.98
2022-08-28T07:56:07.507Z,988.02
2022-08-28T07:57:07.482Z,988.02
2022-08-28T07:58:07.477Z,988.01
2022-08-28T07:59:07.462Z,988.03
2022-08-28T08:00:07.474Z,988.02
2022-08-28T08:01:07.462Z,988.00
2022-08-28T08:02:07.492Z,988.04
2022-08-28T08:03:07.487Z,988.02
2022-08-28T08:04:07.409Z,988.05
2022-08-28T08:05:07.398Z,988.10
2022-08-28T08:06:07.408Z,988.12
2022-08-28T08:07:07.373Z,988.13
2022-08-28T08:08:07.366Z,988.12
2022-08-28T08:09:07.353Z,988.18
2022-08-28T08:10:07.345Z,988.19
2022-08-28T08:11:07.351Z,988.16
2022-08-28T08:12:07.358Z,988.21
2022-08-28T08:13:07.309Z,988.21
2022-08-28T08:14:07.324Z,988.24
2022-08-28T08:15:07.309Z,988.23
2022-08-28T08:16:07.425Z,988.22
2022-08-28T08:17:07.585Z,988.26
2022-08-28T08:18:07.268Z,988.25
2022-08-28T08:19:07.271Z,988.25
2022-08-28T08:20:07.245Z,988.29
2022-08-28T08:21:07.225Z,988.28
2022-08-28T08:22:07.218Z,988.30
2022-08-28T08:23:07.225Z,988.30
2022-08-28T08:24:07.201Z,988.32
2022-08-28T08:25:07.201Z,988.33
2022-08-28T08:26:07.172Z,988.32
2022-08-28T08:27:07.162Z,988.33
2022-08-28T08:28:07.154Z,988.33
2022-08-28T08:29:07.164Z,988.31
2022-08-28T08:30:07.142Z,988.32
2022-08-28T08:31:07.174Z,988.31
2022-08-28T08:32:07.169Z,988.29
2022-08-28T08:33:07.124Z,988.28
2022-08-28T08:34:07.094Z,988.27
2022-08-28T08:35:07.147Z,988.29
2022-08-28T08:36:07.070Z,988.29
2022-08-28T08:37:07.094Z,988.30
2022-08-28T08:38:07.060Z,988.30
2022-08-28T08:39:09.757Z,988.29
2022-08-28T08:40:10.534Z,988.28
2022-08-28T08:41:07.030Z,988.29
2022-08-28T08:42:07.019Z,988.26
2022-08-28T08:43:07.000Z,988.26
2022-08-28T08:44:06.999Z,988.24
2022-08-28T08:45:07.027Z,988.28
2022-08-28T08:46:07.037Z,988.29
2022-08-28T08:47:10.626Z,988.31
2022-08-28T08:48:06.962Z,988.31
2022-08-28T08:49:06.936Z,988.34
2022-08-28T08:50:06.951Z,988.34
2022-08-28T08:51:06.918Z,988.34
2022-08-28T08:52:06.901Z,988.35
2022-08-28T08:53:06.892Z,988.34
2022-08-28T08:54:06.881Z,988.36
2022-08-28T08:55:06.893Z,988.34
2022-08-28T08:56:06.864Z,988.33
2022-08-28T08:57:06.852Z,988.33
2022-08-28T08:58:06.901Z,988.38
2022-08-28T08:59:06.837Z,988.37
2022-08-28T09:00:06.822Z,988.37
2022-08-28T09:01:06.906Z,988.34
2022-08-28T09:02:06.864Z,988.35
2022-08-28T09:03:06.863Z,988.36
2022-08-28T09:04:06.795Z,988.34
2022-08-28T09:05:06.768Z,988.35
2022-08-28T09:06:06.760Z,988.33
2022-08-28T09:07:06.772Z,988.31
2022-08-28T09:08:06.801Z,988.30
2022-08-28T09:09:06.724Z,988.30
2022-08-28T09:10:07.177Z,988.30
2022-08-28T09:11:06.790Z,988.23
2022-08-28T09:12:06.695Z,988.28
2022-08-28T09:13:06.709Z,988.28
2022-08-28T09:14:06.671Z,988.29
2022-08-28T09:15:06.667Z,988.30
2022-08-28T09:16:06.712Z,988.28
2022-08-28T09:17:06.659Z,988.29
2022-08-28T09:18:06.679Z,988.32
2022-08-28T09:19:06.620Z,988.35
2022-08-28T09:20:06.612Z,988.32
2022-08-28T09:21:06.615Z,988.37
2022-08-28T09:22:06.592Z,988.40
2022-08-28T09:23:12.571Z,988.40
2022-08-28T09:24:10.833Z,988.40
2022-08-28T09:25:06.554Z,988.41
2022-08-28T09:26:06.546Z,988.43
2022-08-28T09:27:08.972Z,988.45
2022-08-28T09:28:06.551Z,988.43
2022-08-28T09:29:06.539Z,988.42
2022-08-28T09:30:08.013Z,988.39
2022-08-28T09:31:06.610Z,988.43
2022-08-28T09:32:06.495Z,988.46
2022-08-28T09:33:06.473Z,988.43
2022-08-28T09:34:06.483Z,988.46
2022-08-28T09:35:06.450Z,988.42
2022-08-28T09:36:06.477Z,988.43
2022-08-28T09:37:06.437Z,988.41
2022-08-28T09:38:06.498Z,988.43
2022-08-28T09:39:06.434Z,988.43
2022-08-28T09:40:06.483Z,988.41
2022-08-28T09:41:06.386Z,988.46
2022-08-28T09:42:06.394Z,988.44
2022-08-28T09:43:06.368Z,988.44
2022-08-28T09:44:06.384Z,988.44
2022-08-28T09:45:09.566Z,988.46
2022-08-28T09:46:06.408Z,988.47
2022-08-28T09:47:06.328Z,988.41
2022-08-28T09:48:06.356Z,988.47
2022-08-28T09:49:06.317Z,988.44
2022-08-28T09:50:06.299Z,988.45
2022-08-28T09:51:06.315Z,988.42
2022-08-28T09:52:06.283Z,988.40
2022-08-28T09:53:06.265Z,988.37
2022-08-28T09:54:06.259Z,988.35
2022-08-28T09:55:06.324Z,988.33
2022-08-28T09:56:06.240Z,988.33
2022-08-28T09:57:06.247Z,988.37
2022-08-28T09:58:06.243Z,988.36
2022-08-28T09:59:06.222Z,988.37
2022-08-28T10:00:06.212Z,988.36
2022-08-28T10:01:06.187Z,988.38
2022-08-28T10:02:06.294Z,988.40
2022-08-28T10:03:07.747Z,988.38
2022-08-28T10:04:06.182Z,988.36
2022-08-28T10:05:06.178Z,988.34
2022-08-28T10:06:06.172Z,988.35
2022-08-28T10:07:06.140Z,988.36
2022-08-28T10:08:06.263Z,988.34
2022-08-28T10:09:06.115Z,988.35
2022-08-28T10:10:06.599Z,988.38
2022-08-28T10:11:06.092Z,988.37
2022-08-28T10:12:06.115Z,988.36
2022-08-28T10:13:06.126Z,988.38
2022-08-28T10:14:06.079Z,988.35
2022-08-28T10:15:06.069Z,988.37
2022-08-28T10:16:06.183Z,988.33
2022-08-28T10:17:06.061Z,988.39
2022-08-28T10:18:06.045Z,988.37
2022-08-28T10:19:06.041Z,988.41
2022-08-28T10:20:05.995Z,988.41
2022-08-28T10:21:06.006Z,988.42
2022-08-28T10:22:06.026Z,988.39
2022-08-28T10:23:06.012Z,988.37
2022-08-28T10:24:05.959Z,988.39
2022-08-28T10:25:05.954Z,988.38
2022-08-28T10:26:05.945Z,988.35
2022-08-28T10:27:05.941Z,988.36
2022-08-28T10:28:06.001Z,988.34
2022-08-28T10:29:05.903Z,988.32
2022-08-28T10:30:09.978Z,988.39
2022-08-28T10:31:05.967Z,988.36
2022-08-28T10:32:05.900Z,988.37
2022-08-28T10:33:05.873Z,988.39
2022-08-28T10:34:05.889Z,988.40
2022-08-28T10:35:05.869Z,988.39
2022-08-28T10:36:05.853Z,988.38
2022-08-28T10:37:05.835Z,988.34
2022-08-28T10:38:05.958Z,988.34
2022-08-28T10:39:05.831Z,988.37
2022-08-28T10:40:05.824Z,988.32
2022-08-28T10:41:06.009Z,988.33
2022-08-28T10:42:05.783Z,988.33
2022-08-28T10:43:05.776Z,988.32
2022-08-28T10:44:05.755Z,988.31
2022-08-28T10:45:05.760Z,988.31
2022-08-28T10:46:05.816Z,988.26
2022-08-28T10:47:05.765Z,988.26
2022-08-28T10:48:05.816Z,988.27
2022-08-28T10:49:05.720Z,988.28
2022-08-28T10:50:05.723Z,988.25
2022-08-28T10:51:05.680Z,988.27
2022-08-28T10:52:05.681Z,988.26
2022-08-28T10:53:05.689Z,988.23
2022-08-28T10:54:05.659Z,988.31
2022-08-28T10:55:05.655Z,988.22
2022-08-28T10:56:05.691Z,988.18
2022-08-28T10:57:05.654Z,988.20
2022-08-28T10:58:05.636Z,988.26
2022-08-28T10:59:05.599Z,988.26
2022-08-28T11:00:05.593Z,988.29
2022-08-28T11:01:05.607Z,988.30
2022-08-28T11:02:05.653Z,988.25
2022-08-28T11:03:05.681Z,988.28
2022-08-28T11:04:06.805Z,988.26
2022-08-28T11:05:05.567Z,988.26
2022-08-28T11:06:05.540Z,988.24
2022-08-28T11:07:05.508Z,988.24
2022-08-28T11:08:05.504Z,988.26
2022-08-28T11:09:05.515Z,988.27
2022-08-28T11:10:05.476Z,988.25
2022-08-28T11:11:05.468Z,988.26
2022-08-28T11:12:05.455Z,988.24
2022-08-28T11:13:05.447Z,988.26
2022-08-28T11:14:05.458Z,988.24
2022-08-28T11:15:05.450Z,988.24
2022-08-28T11:16:05.437Z,988.24
2022-08-28T11:17:05.461Z,988.23
2022-08-28T11:18:05.396Z,988.26
2022-08-28T11:19:05.378Z,988.22
2022-08-28T11:20:05.398Z,988.25
2022-08-28T11:21:05.382Z,988.26
2022-08-28T11:22:05.378Z,988.29
2022-08-28T11:23:05.343Z,988.31
2022-08-28T11:24:05.335Z,988.31
2022-08-28T11:25:09.425Z,988.31
2022-08-28T11:26:05.343Z,988.30
2022-08-28T11:27:05.300Z,988.35
2022-08-28T11:28:05.318Z,988.29
2022-08-28T11:29:05.278Z,988.34
2022-08-28T11:30:05.272Z,988.36
2022-08-28T11:31:05.384Z,988.34
2022-08-28T11:32:05.251Z,988.34
2022-08-28T11:33:05.249Z,988.34
2022-08-28T11:34:05.255Z,988.36
2022-08-28T11:35:05.220Z,988.34
2022-08-28T11:36:05.212Z,988.35
2022-08-28T11:37:05.198Z,988.32
2022-08-28T11:38:05.223Z,988.31
2022-08-28T11:39:05.205Z,988.32
2022-08-28T11:40:05.221Z,988.33
2022-08-28T11:41:05.160Z,988.31
2022-08-28T11:42:05.159Z,988.33
2022-08-28T11:43:05.139Z,988.38
2022-08-28T11:44:05.129Z,988.33
2022-08-28T11:45:05.140Z,988.36
2022-08-28T11:46:05.169Z,988.35
2022-08-28T11:47:05.099Z,988.35
2022-08-28T11:48:05.115Z,988.34
2022-08-28T11:49:05.101Z,988.34
2022-08-28T11:50:05.074Z,988.32
2022-08-28T11:51:05.058Z,988.30
2022-08-28T11:52:05.053Z,988.28
2022-08-28T11:53:05.038Z,988.29
2022-08-28T11:54:05.029Z,988.30
2022-08-28T11:55:05.038Z,988.31
2022-08-28T11:56:05.019Z,988.29
2022-08-28T11:57:04.994Z,988.28
2022-08-28T11:58:37.753Z,988.28
2022-08-28T11:59:38.754Z,988.25
2022-08-28T12:00:38.746Z,988.26
2022-08-28T12:01:38.716Z,988.24
2022-08-28T12:02:38.774Z,988.25
2022-08-28T12:03:38.697Z,988.23
2022-08-28T12:04:38.760Z,988.29
2022-08-28T12:05:38.733Z,988.30
2022-08-28T12:06:38.665Z,988.27
2022-08-28T12:07:38.657Z,988.29
2022-08-28T12:08:38.642Z,988.27
2022-08-28T12:09:38.636Z,988.28
2022-08-28T12:10:38.622Z,988.27
2022-08-28T12:11:38.637Z,988.28
2022-08-28T12:12:38.624Z,988.26
2022-08-28T12:13:38.626Z,988.24
2022-08-28T12:14:38.583Z,988.25
2022-08-28T12:15:38.598Z,988.26
2022-08-28T12:16:38.560Z,988.26
2022-08-28T12:17:38.556Z,988.27
2022-08-28T12:18:38.588Z,988.24
2022-08-28T12:19:41.549Z,988.20
2022-08-28T12:20:38.527Z,988.19
2022-08-28T12:21:38.512Z,988.19
2022-08-28T12:22:38.501Z,988.16
2022-08-28T12:23:38.520Z,988.20
2022-08-28T12:24:38.494Z,988.20
2022-08-28T12:25:38.468Z,988.21
2022-08-28T12:26:38.453Z,988.14
2022-08-28T12:27:38.452Z,988.20
2022-08-28T12:28:38.449Z,988.19